Terminal Aerodrome Forecast
Issued by NWS Knoxville/Tri Cities, TN

Home | Current Version | Previous Version | Text Only | Print | Product List | Glossary On
Versions: 1 2 3 4 5 6 7 8 9 10 11 12 13 14 15 16
000
FTUS44 KMRX 291135
TAFCHA
TAF
KCHA 291135Z 2912/3012 33005KT P6SM SCT035
     FM291700 32009KT P6SM SCT045 SCT090
     FM292200 34004KT P6SM BKN070
     FM300600 36003KT P6SM SCT060
     FM300900 VRB02KT 5SM BR BKN030=

USA.gov is the U.S. government's official web portal to all federal, state and local government web resources and services.